Airfield :
LOGIN :

Register | Disclaimer

   EN    FR    IT 

 










Legend :    VFR   Marginal VFR   IFR   Intensive IFR   Very Intensive IFR
Visi :
Ceiling :
>= 8 km
>= 3000ft
5 to 8 km
1000 to 3000 ft
1500m to 5 km
500 to 1000 ft
800 to 1500m
200 to 500 ft
< 800m
< 200 ft
Symbols :   Thunderstorms  Fog  Heavy snow  Heavy precipitations  Wind > 20 kt
SIGMETs :     Misc.  Thunderstorms  Icing  Turbulence  Mountain Waves  Volcanic Ashes







- Airport Elevation : 3 ft
- IATA code : LWR


EHLW - Leuuwarden Air Base

CURRENT METAR :
  • 190955Z AUTO 03011KT 350V060 7000 BR FEW011 OVC220 16/13 Q1007 WHT

EXPIRED METARs :
  • 190925Z AUTO 01008KT 340V040 6000 BR FEW009 OVC220 16/13 Q1007 WHT
  • 190857Z AUTO 36008KT 340V050 6000 BR FEW008 OVC220 15/13 Q1007 WHT
  • 190855Z AUTO 36009KT 340V050 6000 BR FEW008 OVC220 15/13 Q1007 WHT
  • 190841Z AUTO 01008KT 340V050 6000 BR OVC220 15/13 Q1007 WHT
  • 190831Z AUTO 01009KT 340V040 5000 BR FEW007 SCT075 OVC220 14/13 Q1007 WHT
  • 190825Z AUTO 36009KT 340V040 5000 BR SCT006 OVC230 14/13 Q1007 YLO
  • 190820Z AUTO 01009KT 340V040 5000 BR SCT006 BKN240 14/13 Q1007 YLO
  • 190755Z AUTO 36010KT 4600 BR BKN006 BKN007 BKN076 14/13 Q1007 YLO
  • 190730Z AUTO 36010KT 4300 BR BKN006 BKN008 OVC230 14/13 Q1007 YLO
  • 190729Z AUTO 36009KT 4300 BR SCT006 OVC230 15/13 Q1007 YLO

TAF TAF EHLW
Valid from the 19 at 09:00 until the 19 at 21:00 UTC


190858Z 1909/1921 35010KT 6000 BR FEW007 BKN070
PROB40 1916/1921 2000 BR SCT002 BKN005
No reported NOTAMs for that airfield.



MET'MAP, your aeronautical weather chart ! - Copyright ORBIFLY December 2007 - Disclaimer

ORBIFLY MET'MAP TEAM :

Programming & Development : Alexandra Zaïnal
Concept & Development : Baudouin d'Aumeries
Co-Development & Prog : Marc-Olivier Méhu
Technical & hardware support : Manuel Goepfert

Contact : metmap@orbifly.com




SOURCES & CREDITS :

   NOAA